2022年8月11日

时间 代码 天气 温度 能见度 天花板 METAR/SPECI
14:20
V
29 °C 10 km+ - 110° 110° 9 kt METAR ETND 111220Z 11009KT 9999 FEW350 29/08 Q1022 BLU+
13:20
V
28 °C 10 km+ - 160° 160° 5 kt METAR ETND 111120Z 16005KT 9999 FEW350 28/09 Q1023 BLU+
12:20
V
28 °C 10 km+ - 090° 090° 6 kt METAR ETND 111020Z 09006KT 9999 FEW350 28/10 Q1023 BLU+
11:30
V
27 °C 10 km+ - 080° 080° 6 kt METAR ETND 110930Z 08006KT 9999 FEW350 27/09 Q1024 BLU+FCST CANCEL
11:20
V
27 °C 10 km+ - 090° 090° 6 kt METAR ETND 110920Z 09006KT 9999 FEW350 27/09 Q1024 BLU+BLU+
10:20
V
25 °C 10 km+ - 090° 090° 4 kt METAR ETND 110820Z 09004KT 9999 FEW350 25/12 Q1024 BLU+BLU+
09:20
V
22 °C 10 km+ - 110° 110° 3 kt METAR ETND 110720Z 11003KT 9999 FEW350 22/11 Q1024 BLU+BLU+
08:20
V
19 °C 10 km+ - 080° 080° 2 kt METAR ETND 110620Z 08002KT 9999 FEW350 19/10 Q1024 BLU+BLU+
07:20
V
15 °C 10 km+ - Var 000° 0 kt METAR ETND 110520Z 00000KT 9999 FEW350 15/11 Q1024 BLU+BLU+
06:20
V
13 °C 10 km+ - 330° 330° 1 kt METAR ETND 110420Z 33001KT 9999 MIFG FEW350 13/11 Q1024 BLU+BLU+

2022年8月10日

时间 代码 天气 温度 能见度 天花板 METAR/SPECI
14:20
V
27 °C 10 km+ - 100° 100° 3 kt METAR ETND 101220Z 10003KT 9999 SCT390 27/10 Q1026 BLU+
14:03
V
27 °C 10 km+ - 060° 060° 5 kt METAR ETND 101203Z 06005KT 9999 SCT390 27/09 Q1026 BLU+FCST CANCEL
13:20
V
27 °C 10 km+ - 120° 120° 6 kt METAR ETND 101120Z 12006KT 9999 SCT390 27/11 Q1026 BLU+BLU+
12:20
V
25 °C 10 km+ 39.000 ft 090° 090° 5 kt METAR ETND 101020Z 09005KT 9999 BKN390 25/10 Q1027 BLU+BLU+
11:20
V
24 °C 10 km+ 39.000 ft 050° 050° 3 kt METAR ETND 100920Z 05003KT 9999 BKN390 24/13 Q1027 BLU+BLU+
10:20
V
22 °C 10 km+ 35.000 ft 110° 110° 4 kt METAR ETND 100820Z 11004KT 9999 BKN350 22/13 Q1028 BLU+BLU+
09:20
V
19 °C 10 km+ 33.000 ft 090° 090° 4 kt METAR ETND 100720Z 09004KT 9999 BKN330 19/13 Q1028 BLU+BLU+
08:20
V
18 °C 10 km+ 33.000 ft 080° 080° 3 kt METAR ETND 100620Z 08003KT 9999 BKN330 18/13 Q1028 BLU+BLU+
07:20
V
14 °C 10 km+ 33.000 ft 020° 020° 1 kt METAR ETND 100520Z 02001KT 9999 BKN330 14/12 Q1027 BLU+BLU+
06:20
V
13 °C 10 km+ - 350° 350° 1 kt METAR ETND 100420Z 35001KT 9999 MIFG SCT330 13/12 Q1027 BLU+BLU+
较旧的数据

我们和第三方通过cookies跟踪您在我们网站上的上网行为。如果您继续,我们认为您同意我们的cookie政策。 了解更多